Terminal Aerodrome Forecast
Issued by NWS Mt. Holly, NJ

Home | Current Version | Previous Version | Text Only | Print | Product List | Glossary On
Versions: 1 2 3 4 5 6 7 8 9 10 11 12 13 14 15 16 17 18
000
FTAK31 PANC 211400 AAA
TAFABE
TAF AMD
PABE 211400Z 2114/2212 16007KT 4SM BR BKN001
      TEMPO 2114/2116 2SM BR
     FM211600 14010KT P6SM VCSH SCT030 BKN060 OVC100
     FM220300 11015KT P6SM BKN100=

USA.gov is the U.S. government's official web portal to all federal, state and local government web resources and services.